Elliott, Maryland
Current Conditions -  °F | °C
As of 2:14 AM on Saturday 20 Dec 2014 (Local Time) from KCGE Reporting Station
Clear Clear  
Wind Chill: 34°   Ceiling: Unl
Heat Index: 34°   Visibility: 10mi
Dew Point: 27°   Wind: 3mph
Humidity: 75%   Direction: 300°WNW
Pressure: 30.24"   Gusts: NA
Location:  38.4254°N, 75.9037°W
Report Text: KCGE 200714Z AUTO 30003KT 10SM CLR 01/M03 A3024 RMK AO1
Loading
Personal Weather Stations






























Interactive Weather Map New forecast layout! Learn more

10-Day Weather Forecast

Advertisements
Track Severe Weather on mobile